createdAt,value
2023-11-25T00:02:13.055Z,2.61
2023-11-25T00:04:41.106Z,2.60
2023-11-25T00:07:09.119Z,2.63
2023-11-25T00:09:37.026Z,2.58
2023-11-25T00:12:05.111Z,2.53
2023-11-25T00:14:33.161Z,2.50
2023-11-25T00:17:01.145Z,2.49
2023-11-25T00:19:29.281Z,2.44
2023-11-25T00:21:57.672Z,2.37
2023-11-25T00:24:25.583Z,2.30
2023-11-25T00:26:53.547Z,2.29
2023-11-25T00:29:21.597Z,2.26
2023-11-25T00:31:51.586Z,2.25
2023-11-25T00:34:19.569Z,2.23
2023-11-25T00:36:48.170Z,2.21
2023-11-25T00:39:17.623Z,2.15
2023-11-25T00:41:45.678Z,2.09
2023-11-25T00:44:13.990Z,2.03
2023-11-25T00:46:42.089Z,2.02
2023-11-25T00:49:11.170Z,1.97
2023-11-25T00:51:42.384Z,1.99
2023-11-25T00:54:10.807Z,2.01
2023-11-25T00:56:38.733Z,2.03
2023-11-25T00:59:06.677Z,2.02
2023-11-25T01:01:36.686Z,2.01
2023-11-25T01:04:06.124Z,2.00
2023-11-25T01:06:34.076Z,1.98
2023-11-25T01:09:02.152Z,1.92
2023-11-25T01:11:30.101Z,1.97
2023-11-25T01:13:58.016Z,1.94
2023-11-25T01:16:27.396Z,1.93
2023-11-25T01:18:55.565Z,1.93
2023-11-25T01:21:23.496Z,1.92
2023-11-25T01:23:51.436Z,1.91
2023-11-25T01:26:19.985Z,1.90
2023-11-25T01:28:48.142Z,1.93
2023-11-25T01:31:16.867Z,1.94
2023-11-25T01:33:44.869Z,1.95
2023-11-25T01:36:13.970Z,1.98
2023-11-25T01:38:42.314Z,2.00
2023-11-25T01:41:10.325Z,2.01
2023-11-25T01:43:39.579Z,2.05
2023-11-25T01:46:09.432Z,2.05
2023-11-25T01:48:37.686Z,2.04
2023-11-25T01:51:08.220Z,2.08
2023-11-25T01:53:36.617Z,2.09
2023-11-25T01:56:04.882Z,2.09
2023-11-25T01:58:34.818Z,2.08
2023-11-25T02:01:02.991Z,2.08
2023-11-25T02:03:30.905Z,2.11
2023-11-25T02:05:58.850Z,2.15
2023-11-25T02:08:26.920Z,2.16
2023-11-25T02:10:55.115Z,2.17
2023-11-25T02:13:27.318Z,2.17
2023-11-25T02:15:56.944Z,2.18
2023-11-25T02:18:25.206Z,2.19
2023-11-25T02:20:53.877Z,2.23
2023-11-25T02:23:25.152Z,2.24
2023-11-25T02:25:55.126Z,2.25
2023-11-25T02:28:23.450Z,2.25
2023-11-25T02:30:51.827Z,2.24
2023-11-25T02:33:19.865Z,2.28
2023-11-25T02:35:50.956Z,2.29
2023-11-25T02:38:18.942Z,2.32
2023-11-25T02:40:47.661Z,2.29
2023-11-25T02:43:15.732Z,2.32
2023-11-25T02:48:18.356Z,2.36
2023-11-25T02:50:46.587Z,2.36
2023-11-25T02:53:14.803Z,2.32
2023-11-25T02:55:42.788Z,2.32
2023-11-25T02:58:11.046Z,2.37
2023-11-25T03:00:39.336Z,2.40
2023-11-25T03:03:11.929Z,2.39
2023-11-25T03:05:39.866Z,2.42
2023-11-25T03:08:08.952Z,2.44
2023-11-25T03:10:37.851Z,2.41
2023-11-25T03:13:07.207Z,2.37
2023-11-25T03:15:35.150Z,2.32
2023-11-25T03:18:04.346Z,2.30
2023-11-25T03:20:32.415Z,2.29
2023-11-25T03:23:00.658Z,2.26
2023-11-25T03:25:30.308Z,2.26
2023-11-25T03:27:58.786Z,2.25
2023-11-25T03:30:28.835Z,2.26
2023-11-25T03:32:57.101Z,2.25
2023-11-25T03:35:25.763Z,2.28
2023-11-25T03:37:53.684Z,2.27
2023-11-25T03:40:21.650Z,2.29
2023-11-25T03:42:49.797Z,2.26
2023-11-25T03:45:18.321Z,2.28
2023-11-25T03:47:47.334Z,2.24
2023-11-25T03:50:15.525Z,2.23
2023-11-25T03:52:44.292Z,2.23
2023-11-25T03:55:12.497Z,2.22
2023-11-25T03:57:41.543Z,2.25
2023-11-25T04:00:17.060Z,2.20
2023-11-25T04:02:47.051Z,2.17
2023-11-25T04:05:16.120Z,2.21
2023-11-25T04:07:44.156Z,2.24
2023-11-25T04:10:17.771Z,2.23
2023-11-25T04:12:50.442Z,2.28
2023-11-25T04:15:23.899Z,2.28
2023-11-25T04:17:53.401Z,2.27
2023-11-25T04:20:27.426Z,2.30
2023-11-25T04:22:56.652Z,2.34
2023-11-25T04:25:25.200Z,2.35
2023-11-25T04:27:53.853Z,2.37
2023-11-25T04:30:21.939Z,2.36
2023-11-25T04:32:50.327Z,2.40
2023-11-25T04:35:18.796Z,2.36
2023-11-25T04:37:47.820Z,2.35
2023-11-25T04:40:16.683Z,2.35
2023-11-25T04:42:45.526Z,2.36
2023-11-25T04:45:22.544Z,2.34
2023-11-25T04:47:55.615Z,2.31
2023-11-25T04:50:23.616Z,2.32
2023-11-25T04:52:52.118Z,2.31
2023-11-25T04:55:24.311Z,2.25
2023-11-25T04:57:55.149Z,2.24
2023-11-25T05:00:24.252Z,2.20
2023-11-25T05:02:52.220Z,2.21
2023-11-25T05:05:20.142Z,2.18
2023-11-25T05:07:48.210Z,2.19
2023-11-25T05:10:17.381Z,2.19
2023-11-25T05:12:46.736Z,2.19
2023-11-25T05:15:14.723Z,2.20
2023-11-25T05:17:42.948Z,2.21
2023-11-25T05:20:18.263Z,2.20
2023-11-25T05:22:46.489Z,2.21
2023-11-25T05:25:18.033Z,2.18
2023-11-25T05:27:46.426Z,2.17
2023-11-25T05:30:15.809Z,2.12
2023-11-25T05:32:45.241Z,2.01
2023-11-25T05:35:15.688Z,2.02
2023-11-25T05:37:46.423Z,1.95
2023-11-25T05:40:17.093Z,1.90
2023-11-25T05:42:50.453Z,1.89
2023-11-25T05:45:20.076Z,1.83
2023-11-25T05:47:48.031Z,1.83
2023-11-25T05:50:22.738Z,1.81
2023-11-25T05:52:51.411Z,1.83
2023-11-25T05:55:22.206Z,1.84
2023-11-25T05:57:53.134Z,1.84
2023-11-25T06:00:22.437Z,1.87
2023-11-25T06:02:51.924Z,1.85
2023-11-25T06:05:20.303Z,1.84
2023-11-25T06:07:51.255Z,1.89
2023-11-25T06:10:21.397Z,1.91
2023-11-25T06:12:49.444Z,1.92
2023-11-25T06:15:18.232Z,1.96
2023-11-25T06:17:47.722Z,2.00
2023-11-25T06:20:15.829Z,2.03
2023-11-25T06:22:43.799Z,2.05
2023-11-25T06:25:11.860Z,2.07
2023-11-25T06:27:39.949Z,2.16
2023-11-25T06:30:08.525Z,2.11
2023-11-25T06:32:36.623Z,2.14
2023-11-25T06:35:04.849Z,2.09
2023-11-25T06:37:32.879Z,2.06
2023-11-25T06:40:00.811Z,2.05
2023-11-25T06:42:28.705Z,2.05
2023-11-25T06:44:56.653Z,2.07
2023-11-25T06:47:24.988Z,2.05
2023-11-25T06:49:55.860Z,2.04
2023-11-25T06:52:23.987Z,2.06
2023-11-25T06:54:51.901Z,2.00
2023-11-25T06:57:19.797Z,1.96
2023-11-25T06:59:47.888Z,1.95
2023-11-25T07:02:16.102Z,1.88
2023-11-25T07:04:44.274Z,1.83
2023-11-25T07:07:16.104Z,1.77
2023-11-25T07:09:44.201Z,1.74
2023-11-25T07:12:12.681Z,1.76
2023-11-25T07:14:40.653Z,1.76
2023-11-25T07:17:08.762Z,1.77
2023-11-25T07:19:36.780Z,1.84
2023-11-25T07:22:06.104Z,1.87
2023-11-25T07:24:35.241Z,1.90
2023-11-25T07:27:07.500Z,1.90
2023-11-25T07:29:35.934Z,1.90
2023-11-25T07:32:04.666Z,2.06
2023-11-25T07:34:33.973Z,2.43
2023-11-25T07:37:02.223Z,2.78
2023-11-25T07:39:31.884Z,2.73
2023-11-25T07:42:00.469Z,2.78
2023-11-25T07:44:29.731Z,3.04
2023-11-25T07:46:57.658Z,3.15
2023-11-25T07:49:25.897Z,3.16
2023-11-25T07:51:53.852Z,3.13
2023-11-25T07:54:21.839Z,3.07
2023-11-25T07:56:52.532Z,3.02
2023-11-25T07:59:20.538Z,3.01
2023-11-25T08:01:48.650Z,2.98
2023-11-25T08:04:16.819Z,3.03
2023-11-25T08:06:44.896Z,3.06
2023-11-25T08:09:12.908Z,3.03
2023-11-25T08:11:41.307Z,2.94
2023-11-25T08:14:09.224Z,2.91
2023-11-25T08:16:37.406Z,2.86
2023-11-25T08:19:06.473Z,2.79
2023-11-25T08:21:34.381Z,2.79
2023-11-25T08:24:02.893Z,2.74
2023-11-25T08:26:32.336Z,2.72
2023-11-25T08:29:05.343Z,2.67
2023-11-25T08:31:33.609Z,2.66
2023-11-25T08:34:06.435Z,2.64
2023-11-25T08:36:34.412Z,2.71
2023-11-25T08:39:04.136Z,2.77
2023-11-25T08:41:32.567Z,2.83
2023-11-25T08:44:01.620Z,2.88
2023-11-25T08:46:29.884Z,2.88
2023-11-25T08:48:57.897Z,2.89
2023-11-25T08:51:26.575Z,2.84
2023-11-25T08:53:56.550Z,2.83
2023-11-25T08:56:31.961Z,2.79
2023-11-25T08:59:06.734Z,2.78
2023-11-25T09:01:42.018Z,2.74
2023-11-25T09:04:10.238Z,2.79
2023-11-25T09:06:42.022Z,2.79
2023-11-25T09:09:10.125Z,2.76
2023-11-25T09:11:38.216Z,2.79
2023-11-25T09:14:18.264Z,2.82
2023-11-25T09:16:46.496Z,2.82
2023-11-25T09:19:15.539Z,2.88
2023-11-25T09:21:43.676Z,2.94
2023-11-25T09:24:13.881Z,2.99
2023-11-25T09:26:50.448Z,3.08
2023-11-25T09:29:18.304Z,3.10
2023-11-25T09:31:51.836Z,3.08
2023-11-25T09:34:26.885Z,3.09
2023-11-25T09:36:54.976Z,3.13
2023-11-25T09:39:23.018Z,3.17
2023-11-25T09:41:51.448Z,3.21
2023-11-25T09:44:20.772Z,3.25
2023-11-25T09:46:52.606Z,3.25
2023-11-25T09:49:20.956Z,3.26
2023-11-25T09:51:50.520Z,3.31
2023-11-25T09:54:24.512Z,3.30
2023-11-25T09:56:54.061Z,3.30
2023-11-25T09:59:22.155Z,3.29
2023-11-25T10:01:51.331Z,3.23
2023-11-25T10:04:19.775Z,3.19
2023-11-25T10:06:51.212Z,3.17
2023-11-25T10:09:19.213Z,3.13
2023-11-25T10:11:53.502Z,3.14
2023-11-25T10:14:21.496Z,3.11
2023-11-25T10:16:49.518Z,3.05
2023-11-25T10:19:25.215Z,3.05
2023-11-25T10:21:54.191Z,3.09
2023-11-25T10:24:24.175Z,3.11
2023-11-25T10:26:53.465Z,3.14
2023-11-25T10:29:22.056Z,3.19
2023-11-25T10:32:00.209Z,3.14
2023-11-25T10:34:28.434Z,3.11
2023-11-25T10:36:58.214Z,3.16
2023-11-25T10:39:26.836Z,3.24
2023-11-25T10:41:54.972Z,3.28
2023-11-25T10:44:23.081Z,3.23
2023-11-25T10:46:51.861Z,3.24
2023-11-25T10:49:21.841Z,3.20
2023-11-25T10:51:54.409Z,3.16
2023-11-25T10:54:29.371Z,3.19
2023-11-25T10:56:58.828Z,3.27
2023-11-25T10:59:29.102Z,3.27
2023-11-25T11:02:01.932Z,3.34
2023-11-25T11:04:39.858Z,3.29
2023-11-25T11:07:11.681Z,3.33
2023-11-25T11:09:40.877Z,3.37
2023-11-25T11:12:16.722Z,3.33
2023-11-25T11:14:57.352Z,3.35
2023-11-25T11:18:09.313Z,3.38
2023-11-25T11:20:46.678Z,3.33
2023-11-25T11:23:19.280Z,3.36
2023-11-25T11:26:19.285Z,3.38
2023-11-25T11:29:12.828Z,3.38
2023-11-25T11:32:02.695Z,3.30
2023-11-25T11:34:35.423Z,3.29
2023-11-25T11:37:04.828Z,3.36
2023-11-25T11:39:40.041Z,3.42
2023-11-25T11:42:29.986Z,3.46
2023-11-25T11:45:20.313Z,3.46
2023-11-25T11:47:58.764Z,3.46
2023-11-25T11:50:34.460Z,3.49
2023-11-25T11:53:02.556Z,3.57
2023-11-25T11:55:41.570Z,3.65
2023-11-25T11:58:12.178Z,3.69
2023-11-25T12:01:07.533Z,3.62
2023-11-25T12:03:38.875Z,3.69
2023-11-25T12:06:11.245Z,3.69
2023-11-25T12:08:39.370Z,3.69
2023-11-25T12:11:07.908Z,3.75
2023-11-25T12:13:40.948Z,3.79
2023-11-25T12:16:10.832Z,3.82
2023-11-25T12:18:39.158Z,3.84
2023-11-25T12:21:08.038Z,3.81
2023-11-25T12:23:45.409Z,3.90
2023-11-25T12:26:25.153Z,3.94
2023-11-25T12:28:53.223Z,3.93
2023-11-25T12:31:21.545Z,3.95
2023-11-25T12:33:50.732Z,3.97
2023-11-25T12:36:18.957Z,4.07
2023-11-25T12:38:46.930Z,4.01
2023-11-25T12:41:17.611Z,4.04
2023-11-25T12:44:08.789Z,4.11
2023-11-25T12:46:36.921Z,4.09
2023-11-25T12:49:24.713Z,4.07
2023-11-25T12:51:53.871Z,4.09
2023-11-25T12:54:22.470Z,4.07
2023-11-25T12:56:54.809Z,4.07
2023-11-25T12:59:29.387Z,4.02
2023-11-25T13:02:07.269Z,4.01
2023-11-25T13:04:36.162Z,4.02
2023-11-25T13:07:05.174Z,4.01
2023-11-25T13:09:33.863Z,4.07
2023-11-25T13:12:01.812Z,3.99
2023-11-25T13:14:29.803Z,4.01
2023-11-25T13:16:57.952Z,4.02
2023-11-25T13:19:26.006Z,4.06
2023-11-25T13:21:53.908Z,4.08
2023-11-25T13:24:24.769Z,4.04
2023-11-25T13:26:52.931Z,4.05
2023-11-25T13:29:21.660Z,4.06
2023-11-25T13:31:49.645Z,4.00
2023-11-25T13:34:17.686Z,3.98
2023-11-25T13:36:46.687Z,4.01
2023-11-25T13:39:21.472Z,3.98
2023-11-25T13:41:49.642Z,3.97
2023-11-25T13:44:17.666Z,3.97
2023-11-25T13:46:45.679Z,3.98
2023-11-25T13:49:14.952Z,3.98
2023-11-25T13:51:42.990Z,3.92
2023-11-25T13:54:12.133Z,3.95
2023-11-25T13:56:40.026Z,3.96
2023-11-25T13:59:07.998Z,3.92
2023-11-25T14:01:36.212Z,3.96
2023-11-25T14:04:05.491Z,3.99
2023-11-25T14:06:33.488Z,3.97
2023-11-25T14:09:01.891Z,3.94
2023-11-25T14:11:30.527Z,3.96
2023-11-25T14:13:58.780Z,3.93
2023-11-25T14:16:26.731Z,3.94
2023-11-25T14:18:54.870Z,3.90
2023-11-25T14:21:22.764Z,3.94
2023-11-25T14:23:51.476Z,3.92
2023-11-25T14:26:19.449Z,3.90
2023-11-25T14:28:48.459Z,3.86
2023-11-25T14:31:16.361Z,3.86
2023-11-25T14:33:44.503Z,3.83
2023-11-25T14:36:14.555Z,3.78
2023-11-25T14:38:43.864Z,3.73
2023-11-25T14:41:11.859Z,3.66
2023-11-25T14:43:41.034Z,3.55
2023-11-25T14:46:09.123Z,3.45
2023-11-25T14:48:37.243Z,3.38
2023-11-25T14:51:05.376Z,3.37
2023-11-25T14:53:43.815Z,3.29
2023-11-25T14:56:12.248Z,3.22
2023-11-25T14:58:40.322Z,3.13
2023-11-25T15:01:08.392Z,3.04
2023-11-25T15:03:44.597Z,3.02
2023-11-25T15:06:12.602Z,2.96
2023-11-25T15:08:40.590Z,2.94
2023-11-25T15:11:09.254Z,2.95
2023-11-25T15:13:37.248Z,2.92
2023-11-25T15:16:05.620Z,2.90
2023-11-25T15:18:34.259Z,2.87
2023-11-25T15:21:04.626Z,2.83
2023-11-25T15:23:36.788Z,2.82
2023-11-25T15:26:06.560Z,2.79
2023-11-25T15:28:34.494Z,2.76
2023-11-25T15:31:05.437Z,2.74
2023-11-25T15:33:33.411Z,2.76
2023-11-25T15:36:04.523Z,2.76
2023-11-25T15:38:38.692Z,2.73
2023-11-25T15:41:13.561Z,2.75
2023-11-25T15:43:45.918Z,2.79
2023-11-25T15:46:16.654Z,2.79
2023-11-25T15:48:46.507Z,2.76
2023-11-25T15:51:14.487Z,2.77
2023-11-25T15:53:43.155Z,2.78
2023-11-25T15:56:14.148Z,2.76
2023-11-25T15:58:42.211Z,2.71
2023-11-25T16:01:18.990Z,2.74
2023-11-25T16:03:46.991Z,2.70
2023-11-25T16:06:17.900Z,2.63
2023-11-25T16:08:45.884Z,2.58
2023-11-25T16:11:16.866Z,2.53
2023-11-25T16:13:45.913Z,2.54
2023-11-25T16:16:14.010Z,2.49
2023-11-25T16:18:42.032Z,2.45
2023-11-25T16:21:10.016Z,2.40
2023-11-25T16:23:40.303Z,2.40
2023-11-25T16:26:15.390Z,2.36
2023-11-25T16:28:43.364Z,2.33
2023-11-25T16:31:14.407Z,2.35
2023-11-25T16:33:42.371Z,2.32
2023-11-25T16:36:15.385Z,2.28
2023-11-25T16:38:51.764Z,2.30
2023-11-25T16:41:25.721Z,2.27
2023-11-25T16:43:57.263Z,2.25
2023-11-25T16:46:28.327Z,2.27
2023-11-25T16:49:08.032Z,2.29
2023-11-25T16:51:37.211Z,2.30
2023-11-25T16:54:09.470Z,2.28
2023-11-25T16:56:37.508Z,2.29
2023-11-25T16:59:07.493Z,2.26
2023-11-25T17:01:35.772Z,2.28
2023-11-25T17:04:04.431Z,2.30
2023-11-25T17:06:39.242Z,2.30
2023-11-25T17:09:09.853Z,2.30
2023-11-25T17:11:37.784Z,2.29
2023-11-25T17:14:06.163Z,2.29
2023-11-25T17:16:34.347Z,2.28
2023-11-25T17:19:02.359Z,2.30
2023-11-25T17:21:30.401Z,2.25
2023-11-25T17:24:02.615Z,2.26
2023-11-25T17:26:30.513Z,2.26
2023-11-25T17:29:00.971Z,2.18
2023-11-25T17:31:31.512Z,2.20
2023-11-25T17:34:00.607Z,2.20
2023-11-25T17:36:35.366Z,2.18
2023-11-25T17:39:03.375Z,2.16
2023-11-25T17:41:33.581Z,2.13
2023-11-25T17:44:01.646Z,2.12
2023-11-25T17:46:32.257Z,2.08
2023-11-25T17:49:00.223Z,2.02
2023-11-25T17:51:30.432Z,2.01
2023-11-25T17:54:02.683Z,1.97
2023-11-25T17:56:36.528Z,1.91
2023-11-25T17:59:07.140Z,1.82
2023-11-25T18:01:35.380Z,1.76
2023-11-25T18:04:03.673Z,1.72
2023-11-25T18:06:31.659Z,1.67
2023-11-25T18:09:00.027Z,1.63
2023-11-25T18:11:28.276Z,1.58
2023-11-25T18:13:56.347Z,1.54
2023-11-25T18:16:24.502Z,1.46
2023-11-25T18:18:53.664Z,1.44
2023-11-25T18:21:21.622Z,1.42
2023-11-25T18:23:49.602Z,1.39
2023-11-25T18:26:18.587Z,1.36
2023-11-25T18:28:46.545Z,1.36
2023-11-25T18:31:19.221Z,1.35
2023-11-25T18:33:47.144Z,1.33
2023-11-25T18:36:18.724Z,1.34
2023-11-25T18:38:46.783Z,1.30
2023-11-25T18:41:15.198Z,1.34
2023-11-25T18:43:43.224Z,1.35
2023-11-25T18:46:13.139Z,1.37
2023-11-25T18:48:44.451Z,1.39
2023-11-25T18:51:12.430Z,1.39
2023-11-25T18:53:43.046Z,1.42
2023-11-25T18:56:11.164Z,1.43
2023-11-25T18:58:42.363Z,1.45
2023-11-25T19:01:12.041Z,1.46
2023-11-25T19:03:39.982Z,1.47
2023-11-25T19:06:08.420Z,1.50
2023-11-25T19:08:36.332Z,1.51
2023-11-25T19:11:04.372Z,1.51
2023-11-25T19:13:32.359Z,1.55
2023-11-25T19:16:00.331Z,1.56
2023-11-25T19:18:28.344Z,1.60
2023-11-25T19:20:56.682Z,1.57
2023-11-25T19:23:24.598Z,1.58
2023-11-25T19:25:52.609Z,1.61
2023-11-25T19:28:23.025Z,1.62
2023-11-25T19:30:52.674Z,1.66
2023-11-25T19:33:20.651Z,1.66
2023-11-25T19:35:48.767Z,1.70
2023-11-25T19:38:17.571Z,1.73
2023-11-25T19:40:48.844Z,1.73
2023-11-25T19:43:18.620Z,1.76
2023-11-25T19:45:46.626Z,1.76
2023-11-25T19:48:15.270Z,1.78
2023-11-25T19:50:43.374Z,1.83
2023-11-25T19:53:20.506Z,1.84
2023-11-25T19:55:48.961Z,1.88
2023-11-25T19:58:17.392Z,1.89
2023-11-25T20:00:53.336Z,1.93
2023-11-25T20:03:26.447Z,1.93
2023-11-25T20:05:55.750Z,1.97
2023-11-25T20:08:23.916Z,2.00
2023-11-25T20:10:52.043Z,2.03
2023-11-25T20:13:20.645Z,2.06
2023-11-25T20:15:48.900Z,2.06
2023-11-25T20:18:17.291Z,2.09
2023-11-25T20:20:45.457Z,2.12
2023-11-25T20:23:16.253Z,2.15
2023-11-25T20:25:46.111Z,2.15
2023-11-25T20:28:14.504Z,2.15
2023-11-25T20:30:43.490Z,2.15
2023-11-25T20:33:12.558Z,2.16
2023-11-25T20:35:40.513Z,2.17
2023-11-25T20:38:08.609Z,2.16
2023-11-25T20:40:38.944Z,2.17
2023-11-25T20:43:07.379Z,2.19
2023-11-25T20:45:38.358Z,2.15
2023-11-25T20:48:07.031Z,2.16
2023-11-25T20:50:36.354Z,2.21
2023-11-25T20:53:04.744Z,2.21
2023-11-25T20:55:32.836Z,2.22
2023-11-25T20:58:05.058Z,2.21
2023-11-25T21:00:35.745Z,2.23
2023-11-25T21:03:04.382Z,2.25
2023-11-25T21:05:33.780Z,2.25
2023-11-25T21:08:01.907Z,2.23
2023-11-25T21:10:30.200Z,2.23
2023-11-25T21:12:59.548Z,2.22
2023-11-25T21:15:27.502Z,2.21
2023-11-25T21:17:59.465Z,2.19
2023-11-25T21:20:27.459Z,2.16
2023-11-25T21:22:55.514Z,2.13
2023-11-25T21:25:24.131Z,2.13
2023-11-25T21:27:52.317Z,2.14
2023-11-25T21:30:20.296Z,2.16
2023-11-25T21:32:48.447Z,2.18
2023-11-25T21:35:16.733Z,2.21
2023-11-25T21:37:45.377Z,2.20
2023-11-25T21:40:20.662Z,2.19
2023-11-25T21:42:51.910Z,2.17
2023-11-25T21:45:20.745Z,2.18
2023-11-25T21:47:51.203Z,2.18
2023-11-25T21:50:20.203Z,2.15
2023-11-25T21:52:48.202Z,2.20
2023-11-25T21:55:16.919Z,2.20
2023-11-25T21:57:45.562Z,2.19
2023-11-25T22:00:18.036Z,2.20
2023-11-25T22:02:46.418Z,2.16
2023-11-25T22:05:15.822Z,2.13
2023-11-25T22:07:44.058Z,2.12
2023-11-25T22:10:24.306Z,2.15
2023-11-25T22:12:56.087Z,2.16
2023-11-25T22:15:24.731Z,2.16
2023-11-25T22:17:53.184Z,2.17
2023-11-25T22:20:21.244Z,2.18
2023-11-25T22:22:49.181Z,2.18
2023-11-25T22:25:26.695Z,2.19
2023-11-25T22:27:56.247Z,2.22
2023-11-25T22:30:24.296Z,2.20
2023-11-25T22:32:52.417Z,2.23
2023-11-25T22:35:21.211Z,2.26
2023-11-25T22:37:49.833Z,2.25
2023-11-25T22:40:18.268Z,2.27
2023-11-25T22:42:46.463Z,2.27
2023-11-25T22:45:14.568Z,2.29
2023-11-25T22:47:42.478Z,2.28
2023-11-25T22:50:10.975Z,2.28
2023-11-25T22:52:39.062Z,2.30
2023-11-25T22:55:07.190Z,2.30
2023-11-25T22:57:35.200Z,2.25
2023-11-25T23:00:03.675Z,2.26
2023-11-25T23:02:31.782Z,2.25
2023-11-25T23:05:01.504Z,2.26
2023-11-25T23:07:29.397Z,2.25
2023-11-25T23:10:08.460Z,2.25
2023-11-25T23:12:36.604Z,2.23
2023-11-25T23:15:05.752Z,2.25
2023-11-25T23:17:33.929Z,2.26
2023-11-25T23:20:01.822Z,2.26
2023-11-25T23:22:29.748Z,2.28
2023-11-25T23:24:57.784Z,2.28
2023-11-25T23:27:25.775Z,2.29
2023-11-25T23:29:53.782Z,2.32
2023-11-25T23:32:21.748Z,2.32
2023-11-25T23:34:49.736Z,2.32
2023-11-25T23:37:18.582Z,2.32
2023-11-25T23:39:47.090Z,2.33
2023-11-25T23:42:15.262Z,2.31
2023-11-25T23:44:43.318Z,2.27
2023-11-25T23:47:11.350Z,2.28
2023-11-25T23:49:39.391Z,2.27
2023-11-25T23:52:08.579Z,2.25
2023-11-25T23:54:39.821Z,2.26
2023-11-25T23:57:07.800Z,2.25
2023-11-25T23:59:36.285Z,2.25
